Den Burg, Netherlands
Current Conditions -  °F | °C
As of 5:34 AM on Monday 26 Jan 2015 (Local Time) from EHKD Reporting Station
Light Rain Light Rain  
Wind Chill: 38°   Ceiling: 300
Heat Index: 45°   Visibility: 2.8mi
Dew Point: 45°   Wind: 14mph
Humidity: 100%   Direction: 240°WSW
Pressure: 30.09"   Gusts: NA
Location:  53.05°N, 4.8°E
Report Text: EHKD 260434Z AUTO 24012KT 4500 -RA BKN003 BKN004 OVC011 07/07 Q1019 YLO
Loading
Personal Weather Stations






























Interactive Weather Map New forecast layout! Learn more

10-Day Weather Forecast

Advertisements
Track Severe Weather on mobile